createdAt,value
2022-10-29T00:00:13.533Z,86.56
2022-10-29T00:03:02.428Z,87.43
2022-10-29T00:05:31.326Z,86.92
2022-10-29T00:08:00.132Z,86.98
2022-10-29T00:10:30.244Z,86.78
2022-10-29T00:13:03.833Z,86.29
2022-10-29T00:15:32.547Z,86.33
2022-10-29T00:18:01.515Z,86.66
2022-10-29T00:20:30.218Z,86.96
2022-10-29T00:22:59.256Z,88.18
2022-10-29T00:25:28.146Z,86.95
2022-10-29T00:27:57.278Z,85.34
2022-10-29T00:30:26.104Z,86.63
2022-10-29T00:32:55.219Z,85.92
2022-10-29T00:35:24.321Z,86.13
2022-10-29T00:37:53.534Z,86.85
2022-10-29T00:40:22.750Z,87.96
2022-10-29T00:42:51.428Z,88.21
2022-10-29T00:45:21.743Z,88.71
2022-10-29T00:47:53.718Z,88.65
2022-10-29T00:50:25.031Z,89.78
2022-10-29T00:52:54.400Z,89.09
2022-10-29T00:55:23.244Z,88.50
2022-10-29T00:57:55.714Z,87.43
2022-10-29T01:00:24.988Z,87.10
2022-10-29T01:02:54.140Z,87.03
2022-10-29T01:05:27.355Z,87.12
2022-10-29T01:07:56.208Z,87.13
2022-10-29T01:10:50.663Z,86.77
2022-10-29T01:13:23.277Z,86.82
2022-10-29T01:16:21.636Z,87.62
2022-10-29T01:19:30.436Z,87.46
2022-10-29T01:22:14.195Z,87.36
2022-10-29T01:25:10.583Z,87.89
2022-10-29T01:28:01.028Z,87.88
2022-10-29T01:31:09.566Z,88.18
2022-10-29T01:33:48.517Z,88.08
2022-10-29T01:36:40.990Z,88.15
2022-10-29T01:39:53.409Z,88.48
2022-10-29T01:42:36.585Z,88.39
2022-10-29T01:45:32.014Z,88.24
2022-10-29T01:48:11.383Z,87.96
2022-10-29T01:50:44.973Z,89.44
2022-10-29T01:53:14.228Z,89.24
2022-10-29T01:55:43.172Z,88.43
2022-10-29T01:58:13.838Z,88.19
2022-10-29T02:01:03.890Z,88.47
2022-10-29T02:03:51.093Z,88.67
2022-10-29T02:06:34.974Z,89.06
2022-10-29T02:09:31.359Z,89.52
2022-10-29T02:12:31.546Z,89.87
2022-10-29T02:15:21.002Z,89.76
2022-10-29T02:20:50.370Z,90.95
2022-10-29T02:23:19.221Z,91.81
2022-10-29T02:25:48.088Z,92.75
2022-10-29T02:28:17.055Z,91.49
2022-10-29T02:30:45.921Z,91.17
2022-10-29T02:33:14.651Z,90.57
2022-10-29T02:35:43.487Z,89.84
2022-10-29T02:38:12.254Z,89.82
2022-10-29T02:40:41.067Z,91.07
2022-10-29T02:43:10.037Z,90.58
2022-10-29T02:45:38.845Z,90.54
2022-10-29T02:48:07.854Z,89.01
2022-10-29T02:50:36.821Z,89.18
2022-10-29T02:53:05.595Z,88.59
2022-10-29T02:55:34.477Z,88.73
2022-10-29T02:58:03.401Z,88.89
2022-10-29T03:00:32.162Z,90.08
2022-10-29T03:03:01.039Z,90.78
2022-10-29T03:05:30.080Z,90.85
2022-10-29T03:07:58.722Z,90.61
2022-10-29T03:10:27.629Z,90.85
2022-10-29T03:13:03.562Z,90.67
2022-10-29T03:15:32.433Z,90.86
2022-10-29T03:18:01.235Z,91.33
2022-10-29T03:20:30.467Z,91.22
2022-10-29T03:22:59.282Z,90.95
2022-10-29T03:25:28.083Z,90.23
2022-10-29T03:27:58.210Z,90.72
2022-10-29T03:30:27.280Z,90.60
2022-10-29T03:32:56.503Z,90.04
2022-10-29T03:52:29.796Z,87.00
2022-10-29T03:54:57.321Z,87.31
2022-10-29T03:57:24.988Z,86.87
2022-10-29T03:59:56.063Z,86.72
2022-10-29T04:02:24.995Z,86.98
2022-10-29T04:04:52.859Z,87.31
2022-10-29T04:07:20.299Z,88.13
2022-10-29T04:09:49.556Z,87.89
2022-10-29T04:12:17.434Z,88.63
2022-10-29T04:17:23.958Z,89.16
2022-10-29T04:19:51.419Z,88.63
2022-10-29T04:30:47.439Z,89.50
2022-10-29T04:33:15.129Z,89.18
2022-10-29T04:35:42.607Z,88.32
2022-10-29T04:38:14.520Z,88.47
2022-10-29T04:40:42.079Z,89.63
2022-10-29T04:43:12.631Z,89.70
2022-10-29T04:45:40.578Z,89.49
2022-10-29T04:51:24.581Z,87.98
2022-10-29T04:53:54.237Z,89.26
2022-10-29T04:56:23.298Z,88.97
2022-10-29T04:58:53.217Z,88.15
2022-10-29T05:01:25.954Z,88.39
2022-10-29T05:04:00.049Z,88.30
2022-10-29T05:06:53.324Z,89.36
2022-10-29T05:09:22.250Z,90.09
2022-10-29T05:11:51.191Z,89.34
2022-10-29T05:14:23.622Z,88.93
2022-10-29T05:16:56.264Z,88.65
2022-10-29T05:19:25.326Z,88.56
2022-10-29T05:21:54.248Z,89.17
2022-10-29T05:24:23.407Z,89.53
2022-10-29T05:26:55.654Z,90.11
2022-10-29T05:29:27.650Z,90.19
2022-10-29T05:31:56.565Z,89.25
2022-10-29T05:34:49.904Z,89.86
2022-10-29T05:37:18.748Z,89.54
2022-10-29T05:39:47.707Z,89.29
2022-10-29T05:42:16.448Z,89.48
2022-10-29T05:44:45.222Z,89.25
2022-10-29T05:53:04.998Z,91.04
2022-10-29T05:55:35.834Z,92.66
2022-10-29T05:58:08.012Z,92.95
2022-10-29T06:00:40.264Z,92.98
2022-10-29T06:03:18.998Z,92.41
2022-10-29T06:05:49.734Z,92.31
2022-10-29T06:08:27.254Z,91.35
2022-10-29T06:10:56.121Z,90.72
2022-10-29T06:13:24.840Z,91.29
2022-10-29T06:16:01.441Z,91.17
2022-10-29T06:18:30.862Z,91.44
2022-10-29T06:21:00.927Z,91.79
2022-10-29T06:23:29.802Z,91.59
2022-10-29T06:26:02.153Z,90.66
2022-10-29T06:28:33.719Z,90.20
